Moxee, WA (98936)

5:15 AM PST on December 20, 2014 (GMT -0800)
106 Grant Way Moxee WA 98936 | Change Station
CLOSE
Current Station
Personal Weather Station
Location: Moxee, WA
Elevation: 1026 ft
Nearby Weather Stations
Active Advisory: Areal Flood Watch, Wind Advisory

Elev 1026 ft 46.57 °N, 120.40 °W | Updated 7 minutes ago

Rain
Rain
36.4 °F
Feels Like 36 °F
N
2.0
Wind Variable Wind from SE
Gusts 3.0 mph

Today
High -- | Low -- °F
--% Chance of Precip.
Yesterday
High -- | Low -- °F
Precip. -- in
7:41 AM 4:16 PM
Waning Crescent, 3% visible
Pressure 29.84 in
Visibility 3.0 miles
Clouds Overcast 900 ft
Windchill 36 °F
Dew Point 36 °F
Humidity 98%
Rainfall 0.07 in
Snow Depth Not available.
UV 0 out of 12
Pollen .50 out of 12
Air Quality Not available.
Flu Activity Not available.
SPECI KYKM 201310Z AUTO 00000KT 3SM -RA BR OVC009 03/02 A2984 RMK AO2 CIG 009V014 P0001 T00330022

More Conditions Fewer Conditions

Pressure 29.84 in
Visibility 3.0 miles
Clouds Overcast 900 ft
Windchill 36 °F
Dew Point 36 °F
Humidity 98%
Rainfall 0.07 in
Snow Depth Not available.
UV 0 out of 12
Pollen .50 out of 12
Air Quality Not available.
Flu Activity Not available.
SPECI KYKM 201310Z AUTO 00000KT 3SM -RA BR OVC009 03/02 A2984 RMK AO2 CIG 009V014 P0001 T00330022

More Conditions Fewer Conditions

10-Day Weather Forecast

Almanac

Astronomy

Dec. 20, 2014 Rise Set
Actual Time
Civil Twilight
Nautical Twilight
Astronomical Twilight
Moon
Length of Visible Light
Length of Day
Tomorrow will be .
, % of the Moon is Illuminated

Today's Extremes

State Highs State Lows

Community

WunderPhotos

Upload Photos

1,779,167 photos uploaded!

WunderBlogs® & News

Nearby

Air Quality

  Air Quality AQ Index Pollutant
Not available.

Snow Depth

Station Depth Elevation

Earthquake Activity

City Distance Mag. Time & Date
Minimum magnitude displayed is 2.5.

Coastal Water Temperatures

Place Temperature

Nearby Weather Stations